Résultats de la compétition "Ile Grande (22)" du 19-08-2008 organisée par le comité départemental du 22 - Côtes-d'Armor
     
  Télécharger le fichier CSV.  
     
     

 Circuit "Circuit G"

Licence Nom Prénom Temps CN
précédent
Score sur
la course
Différence
8108LELOUPAnouk0:22:4039494363+414
8922ROULLEAUXNoemie0:23:5042764149-127
6706LETOUBLONAndrea0:24:3739534017+64
7045LOTERIELaurine0:24:4534313996+565
11309BOULESTREAUZelie0:25:4536503840+190
16357MAISONNEUVEValentine0:27:0429263654+728
18432HUMMEL-AZAISMargaux0:27:1927923620+828
14738BIHELJulia0:28:0131783530+352
10863DEJARDINEmilie0:28:3819663454+1488
15479MORELEugenie0:30:2932463244-2
7672DEVRIEUXNais0:30:3830533228+175
8551CLOUARDLucile0:30:4540493216-833
2401DEVILLENelly0:32:0243573087-1270
17531CHANDEYSSONLaurie0:32:0633653081-284
395BLASCONicole0:32:3333453038-307
5033THIEBAULTMonique0:32:3942283029-1199
10077POURREMarion0:33:5328442919+75
6491ROBERTFrancoise0:34:0534152901-514
15550MOROUXMargot0:34:2221872878+691
1380DIEUDONNEMadeleine0:35:0542152819-1396
18828CRETECamille0:35:1317532808+1055
19362TOULEMONDECamille0:35:3723502777+427
7711DENAIXLou0:35:5327712756-15
13703PRADEILLESSarah0:36:2216752719+1044
9964MONTERRATLaurene0:36:3621602702+542
17344LARGILLEREEugenie0:37:0923722662+290
2557VOGTChristiane0:37:2633872642-745
5167BORRELLIBernadette0:37:3739532629-1324
3302JEANPIERREM-Therese0:38:1930142581-433
16634BAUDOINAnnie0:38:2322442576+332
10485DODIEROrianne0:39:3619612497+536
1106NATALIAnnie0:40:0727572465-292
11385GONNEAUDPerrine0:41:1421532398+245
19612LE VERGEKlervi0:42:34N/A2323N/A
16329BOPPM-Charlotte0:43:3327422271-471
701ABISSEGisele0:44:0429592244-715
2124VANNIERVictorine0:45:3225352172-363
15630DIRRINGERM-Claude0:45:4228482164-684
6826DUVOUXFrance0:46:1827202136-584
2446RIFFARDM-Lucie0:46:2531702130-1040
15894LUDEWIG-JAMESCarol0:47:5617372063+326
4392DODINGenevieve0:49:0819042013+109
15276VERDINAlix0:50:0722081973-235
14164EJSMONTMartine0:52:3615431880+337
934TESTOUDMadeleine0:55:2021511787-364
1437BOUSQUETHuguette1:04:3617891531-258
1417CHAVERNACChantal1:05:4814581503+45
10072BACHERAmelie1:14:14N/A1332N/A
14078BLAUDEZJocelyne1:16:0012901301+11
2487JOLYFrancoise1:22:0116921206-486
1275ANTOINEJacqueline1:26:0315191149-370
14776LLUELLCeline2:29:203454662-2792
19238CAMASMandyeN/A19680-1968
19940PRUNIER-LOUVETMona-MoniqueN/A15920-1592

  Indice de confiance du circuit (moyenne des différences entre CN et score sur la course des 3 à 10 premiers) : 140






 Retour